Time;durP1;ratioP1;P1;durP2;ratioP2;P2;SDS_P1;SDS_P2;PMS_P1;PMS_P2;Temp;Humidity;BMP_temperature;BMP_pressure;BME280_temperature;BME280_humidity;BME280_pressure;Samples;Min_cycle;Max_cycle;Signal;HPM_P1;HPM_P2
2021/12/02 00:00:08;;;;;;;1.40;1.00;;;6.60;99.90;;;;;;4990841;28;20179;-69
2021/12/02 00:02:36;;;;;;;0.73;0.73;;;6.60;99.90;;;;;;4997904;28;20553;-73
2021/12/02 00:05:03;;;;;;;0.95;0.95;;;6.70;99.90;;;;;;4992581;28;20234;-72
2021/12/02 00:07:29;;;;;;;1.25;1.25;;;6.70;99.90;;;;;;4999653;28;20198;-73
2021/12/02 00:09:55;;;;;;;1.10;1.10;;;6.70;99.90;;;;;;4992679;28;20521;-73
2021/12/02 00:12:21;;;;;;;1.85;1.50;;;6.70;99.90;;;;;;4991234;28;20220;-73
2021/12/02 00:14:48;;;;;;;1.00;0.93;;;6.60;99.90;;;;;;4994132;28;20213;-73
2021/12/02 00:17:22;;;;;;;0.90;0.90;;;6.60;99.90;;;;;;4985872;28;20249;-72
2021/12/02 00:22:38;;;;;;;1.00;1.00;;;6.50;99.90;;;;;;4991365;28;20205;-73
2021/12/02 00:25:04;;;;;;;0.90;0.90;;;6.40;99.90;;;;;;4988070;28;20229;-72
2021/12/02 00:27:30;;;;;;;0.70;0.70;;;6.50;99.90;;;;;;4996444;28;20233;-72
2021/12/02 00:29:58;;;;;;;0.60;0.60;;;6.40;99.90;;;;;;4994259;28;20232;-71
2021/12/02 00:32:30;;;;;;;0.80;0.80;;;6.40;99.90;;;;;;4994650;28;20178;-71
2021/12/02 00:34:57;;;;;;;0.80;0.80;;;6.40;99.90;;;;;;4982422;28;20194;-73
2021/12/02 00:37:23;;;;;;;1.20;1.20;;;6.30;99.90;;;;;;4975470;28;20205;-73
2021/12/02 00:39:51;;;;;;;0.93;0.93;;;6.40;99.90;;;;;;4990339;28;20239;-74
2021/12/02 00:42:17;;;;;;;0.93;0.93;;;6.30;99.90;;;;;;4996640;28;20184;-72
2021/12/02 00:44:44;;;;;;;0.85;0.85;;;6.40;99.90;;;;;;5014080;28;20209;-74
2021/12/02 00:47:10;;;;;;;0.73;0.73;;;6.40;99.90;;;;;;4995467;28;20581;-72
2021/12/02 00:49:35;;;;;;;0.80;0.80;;;6.30;99.90;;;;;;4995254;28;20170;-73
2021/12/02 00:52:03;;;;;;;0.90;0.88;;;6.40;99.90;;;;;;4995969;28;20645;-75
2021/12/02 00:54:30;;;;;;;0.70;0.70;;;6.40;99.90;;;;;;5014365;28;20181;-72
2021/12/02 00:56:56;;;;;;;0.75;0.75;;;6.40;99.90;;;;;;5006484;28;20205;-72
2021/12/02 00:59:23;;;;;;;0.60;0.60;;;6.50;99.90;;;;;;4998776;28;20216;-72
2021/12/02 01:01:51;;;;;;;3.92;0.60;;;6.50;99.90;;;;;;4998271;28;20178;-72
2021/12/02 01:04:22;;;;;;;0.38;0.38;;;6.50;99.90;;;;;;5002347;28;20201;-72
2021/12/02 01:06:49;;;;;;;0.63;0.63;;;6.50;99.90;;;;;;4998207;28;20204;-71
2021/12/02 01:09:14;;;;;;;0.40;0.40;;;6.60;99.90;;;;;;4991010;28;20178;-72
2021/12/02 01:11:40;;;;;;;0.63;0.63;;;6.50;99.90;;;;;;4984653;28;20667;-73
2021/12/02 01:14:08;;;;;;;0.40;0.40;;;6.50;99.90;;;;;;4997304;28;20182;-74
2021/12/02 01:16:34;;;;;;;0.47;0.47;;;6.50;99.90;;;;;;4988541;28;20324;-72
2021/12/02 01:19:00;;;;;;;0.40;0.40;;;6.50;99.90;;;;;;4990899;28;20188;-73
2021/12/02 01:21:27;;;;;;;0.77;0.77;;;6.40;99.90;;;;;;4993498;28;20209;-72
2021/12/02 01:23:59;;;;;;;0.60;0.60;;;6.40;99.90;;;;;;4992876;28;20218;-72
2021/12/02 01:26:27;;;;;;;0.93;0.93;;;6.30;99.90;;;;;;4987027;28;20296;-72
2021/12/02 01:28:53;;;;;;;0.63;0.63;;;6.20;99.90;;;;;;4987088;28;20685;-73
2021/12/02 01:31:19;;;;;;;0.90;0.77;;;6.10;99.90;;;;;;4994814;28;20177;-72
2021/12/02 01:33:45;;;;;;;0.77;0.77;;;6.00;99.90;;;;;;4989966;28;20525;-74
2021/12/02 01:36:12;;;;;;;1.65;0.85;;;5.90;99.90;;;;;;4997478;28;20301;-72
2021/12/02 01:39:11;;;;;;;0.90;0.90;;;5.80;99.90;;;;;;4991508;28;20178;-72
2021/12/02 01:41:44;;;;;;;0.50;0.50;;;5.80;99.90;;;;;;4991277;28;20181;-72
2021/12/02 01:44:13;;;;;;;4.82;1.13;;;5.70;99.90;;;;;;4999904;28;20201;-73
2021/12/02 01:46:41;;;;;;;1.08;1.08;;;5.70;99.90;;;;;;4991447;28;20194;-72
2021/12/02 01:49:10;;;;;;;0.80;0.80;;;5.80;99.90;;;;;;4992729;28;20277;-72
2021/12/02 01:55:09;;;;;;;0.85;0.85;;;5.70;99.90;;;;;;4992510;28;20196;-70
2021/12/02 01:57:36;;;;;;;0.63;0.63;;;5.50;99.90;;;;;;4991792;28;20289;-70
2021/12/02 02:00:15;;;;;;;0.80;0.80;;;5.40;99.90;;;;;;4992094;28;20185;-71
2021/12/02 02:02:41;;;;;;;0.70;0.70;;;5.30;99.90;;;;;;4972769;28;20276;-72
2021/12/02 02:05:13;;;;;;;0.73;0.70;;;5.20;99.90;;;;;;4994633;28;20206;-72
2021/12/02 02:07:57;;;;;;;0.87;0.87;;;5.10;99.90;;;;;;4990572;28;20340;-71
2021/12/02 02:10:24;;;;;;;1.73;1.03;;;5.10;99.90;;;;;;4993959;28;20192;-70
2021/12/02 02:12:49;;;;;;;0.80;0.80;;;5.00;99.90;;;;;;4988988;28;20194;-72
2021/12/02 02:15:15;;;;;;;0.83;0.83;;;5.10;99.90;;;;;;4995513;28;20173;-71
2021/12/02 02:17:51;;;;;;;1.93;0.80;;;5.10;99.90;;;;;;4990828;28;20206;-71
2021/12/02 02:20:22;;;;;;;1.20;1.10;;;5.00;99.90;;;;;;4988515;28;20193;-70
2021/12/02 02:22:47;;;;;;;1.00;1.00;;;5.10;99.90;;;;;;4989369;28;20273;-71
2021/12/02 02:25:14;;;;;;;1.07;1.03;;;5.00;99.90;;;;;;4986795;28;20823;-71
2021/12/02 02:27:40;;;;;;;1.30;0.90;;;5.00;99.90;;;;;;4994502;28;20711;-71
2021/12/02 02:30:09;;;;;;;0.93;0.93;;;5.00;99.90;;;;;;4992055;28;20179;-71
2021/12/02 02:32:34;;;;;;;1.27;1.10;;;5.00;99.90;;;;;;4989282;28;20177;-71
2021/12/02 02:35:00;;;;;;;0.90;0.90;;;4.90;99.90;;;;;;4992491;28;20197;-71
2021/12/02 02:37:31;;;;;;;1.00;1.00;;;4.90;99.90;;;;;;4992958;28;20236;-72
2021/12/02 02:39:57;;;;;;;1.23;1.23;;;5.00;99.90;;;;;;4990021;28;20201;-71
2021/12/02 02:42:24;;;;;;;1.43;1.37;;;4.90;99.90;;;;;;4977410;28;20661;-71
2021/12/02 02:44:51;;;;;;;0.87;0.87;;;4.90;99.90;;;;;;4979169;28;20779;-73
2021/12/02 02:47:17;;;;;;;1.20;1.10;;;4.90;99.90;;;;;;4995176;28;20669;-70
2021/12/02 02:49:42;;;;;;;1.70;1.27;;;4.80;99.90;;;;;;4989175;28;20189;-72
2021/12/02 02:52:08;;;;;;;0.93;0.93;;;4.80;99.90;;;;;;4986371;28;20186;-71
2021/12/02 02:54:34;;;;;;;1.43;1.13;;;4.70;99.90;;;;;;4993471;28;20185;-71
2021/12/02 02:57:03;;;;;;;1.17;0.90;;;4.70;99.90;;;;;;4988789;28;20241;-72
2021/12/02 03:07:34;;;;;;;1.13;0.90;;;4.80;99.90;;;;;;4990248;28;20225;-71
2021/12/02 03:17:46;;;;;;;1.45;1.00;;;5.00;99.90;;;;;;4988311;28;20225;-73
2021/12/02 03:20:12;;;;;;;1.02;1.02;;;5.10;99.90;;;;;;4982457;28;20198;-72
2021/12/02 03:22:38;;;;;;;1.25;1.25;;;5.10;99.90;;;;;;4985993;28;20185;-73
2021/12/02 03:25:06;;;;;;;1.03;1.00;;;5.10;99.90;;;;;;4981822;28;20214;-72
2021/12/02 03:27:32;;;;;;;1.35;1.25;;;5.00;99.90;;;;;;4986627;28;20255;-73
2021/12/02 03:29:59;;;;;;;0.93;0.90;;;5.00;99.90;;;;;;4991152;28;20292;-72
2021/12/02 03:32:24;;;;;;;0.90;0.90;;;5.10;99.90;;;;;;4992905;28;20236;-73
2021/12/02 03:34:50;;;;;;;1.10;1.10;;;5.10;99.90;;;;;;4989674;28;20961;-72
2021/12/02 03:37:17;;;;;;;1.30;1.30;;;5.20;99.90;;;;;;4992342;28;20221;-72
2021/12/02 03:39:43;;;;;;;2.65;1.15;;;5.20;99.90;;;;;;4989469;28;20237;-72
2021/12/02 03:42:09;;;;;;;3.05;1.40;;;5.20;99.90;;;;;;4988931;28;20181;-72
2021/12/02 03:44:35;;;;;;;1.10;1.10;;;5.30;99.90;;;;;;4989149;28;20683;-73
2021/12/02 03:47:01;;;;;;;0.95;0.95;;;5.30;99.90;;;;;;4990401;28;20201;-72
2021/12/02 03:49:28;;;;;;;1.95;1.05;;;5.30;99.90;;;;;;4989233;28;20194;-72
2021/12/02 03:51:53;;;;;;;1.85;1.02;;;5.30;99.90;;;;;;4986258;28;20209;-72
2021/12/02 03:54:19;;;;;;;1.00;1.00;;;5.30;99.90;;;;;;4987854;28;20640;-73
2021/12/02 03:56:45;;;;;;;1.00;1.00;;;5.30;99.90;;;;;;4986884;28;20209;-72
2021/12/02 03:59:10;;;;;;;0.85;0.85;;;5.20;99.90;;;;;;4986748;28;20187;-72
2021/12/02 04:01:36;;;;;;;4.47;2.28;;;5.20;99.90;;;;;;4992042;28;20546;-73
2021/12/02 04:04:02;;;;;;;1.08;1.08;;;5.20;99.90;;;;;;4991495;28;20704;-73
2021/12/02 04:06:28;;;;;;;2.28;1.30;;;5.10;99.90;;;;;;4972664;28;20210;-73
2021/12/02 04:08:58;;;;;;;2.05;1.27;;;5.10;99.90;;;;;;4987590;28;20183;-73
2021/12/02 04:11:43;;;;;;;1.25;1.00;;;5.00;99.90;;;;;;4989291;28;20652;-73
2021/12/02 04:16:51;;;;;;;0.82;0.82;;;5.00;99.90;;;;;;4987895;28;20254;-73
2021/12/02 04:19:17;;;;;;;1.10;1.00;;;5.00;99.90;;;;;;4987543;28;20190;-74
2021/12/02 04:21:42;;;;;;;2.10;1.10;;;5.00;99.90;;;;;;4987401;28;20200;-75
2021/12/02 04:24:08;;;;;;;0.98;0.98;;;5.00;99.90;;;;;;4991607;28;20578;-74
2021/12/02 04:26:34;;;;;;;1.00;1.00;;;4.90;99.90;;;;;;4988832;28;20203;-74
2021/12/02 04:28:59;;;;;;;1.23;1.23;;;4.80;99.90;;;;;;4973939;28;20205;-73
2021/12/02 04:31:25;;;;;;;0.68;0.68;;;4.70;99.90;;;;;;4981524;28;20180;-74
2021/12/02 04:33:51;;;;;;;1.63;1.30;;;4.60;99.90;;;;;;4987444;28;20189;-73
2021/12/02 04:36:17;;;;;;;0.80;0.75;;;4.60;99.90;;;;;;4988873;28;20209;-73
2021/12/02 04:38:43;;;;;;;1.70;1.60;;;4.50;99.90;;;;;;4988487;28;20252;-73
2021/12/02 04:41:09;;;;;;;1.80;1.03;;;4.40;99.90;;;;;;4983247;28;20190;-72
2021/12/02 04:43:35;;;;;;;1.70;1.27;;;4.30;99.90;;;;;;4983469;28;20745;-72
2021/12/02 04:46:00;;;;;;;1.10;1.10;;;4.40;99.90;;;;;;4979741;28;20230;-73
2021/12/02 04:48:26;;;;;;;1.80;1.40;;;4.40;99.90;;;;;;4982451;28;20205;-72
2021/12/02 04:50:52;;;;;;;1.33;1.20;;;4.40;99.90;;;;;;4980427;28;20185;-72
2021/12/02 04:53:18;;;;;;;2.90;1.13;;;4.40;99.90;;;;;;4983072;28;20534;-72
2021/12/02 04:55:44;;;;;;;1.30;1.20;;;4.40;99.90;;;;;;4982035;28;20190;-73
2021/12/02 04:58:10;;;;;;;1.20;1.10;;;4.40;99.90;;;;;;4980592;28;20186;-74
2021/12/02 05:00:35;;;;;;;1.60;1.50;;;4.60;99.90;;;;;;4989532;28;20196;-72
2021/12/02 05:03:02;;;;;;;1.03;1.00;;;4.70;99.90;;;;;;4986675;28;20591;-73
2021/12/02 05:05:28;;;;;;;1.00;1.00;;;4.70;99.90;;;;;;4984418;28;20193;-74
2021/12/02 05:07:54;;;;;;;2.80;1.10;;;4.70;99.90;;;;;;4984455;28;20210;-72
2021/12/02 05:10:20;;;;;;;3.00;1.58;;;4.80;99.90;;;;;;4985864;28;20548;-72
2021/12/02 05:12:46;;;;;;;6.28;5.32;;;4.90;99.90;;;;;;4985644;28;20225;-73
2021/12/02 05:15:12;;;;;;;6.00;4.18;;;4.90;99.90;;;;;;4985407;28;20186;-74
2021/12/02 05:17:38;;;;;;;3.80;3.50;;;5.00;99.90;;;;;;4985481;28;20268;-73
2021/12/02 05:20:05;;;;;;;2.58;2.38;;;5.10;99.90;;;;;;4983434;28;20205;-72
2021/12/02 05:22:31;;;;;;;2.50;1.55;;;5.10;99.90;;;;;;4988415;28;20196;-72
2021/12/02 05:24:57;;;;;;;1.98;1.30;;;5.10;99.90;;;;;;4984552;28;20213;-73
2021/12/02 05:27:22;;;;;;;1.75;1.58;;;5.20;99.90;;;;;;4989685;28;20605;-73
2021/12/02 05:29:48;;;;;;;1.90;1.25;;;5.20;99.90;;;;;;4989424;28;20209;-73
2021/12/02 05:32:14;;;;;;;1.27;1.17;;;5.20;99.90;;;;;;4974139;28;20217;-73
2021/12/02 05:34:39;;;;;;;1.00;1.00;;;5.20;99.90;;;;;;4992922;28;20197;-73
2021/12/02 05:37:05;;;;;;;2.95;1.17;;;5.20;99.90;;;;;;4992461;28;20209;-72
2021/12/02 05:39:30;;;;;;;1.67;1.58;;;5.20;99.90;;;;;;4993012;28;20273;-73
2021/12/02 05:41:56;;;;;;;1.27;1.17;;;5.20;99.90;;;;;;4993410;28;20198;-72
2021/12/02 05:44:23;;;;;;;1.75;1.65;;;5.20;99.90;;;;;;4991409;28;20265;-72
2021/12/02 05:46:48;;;;;;;1.90;1.35;;;5.20;99.90;;;;;;4994826;28;20217;-73
2021/12/02 05:49:14;;;;;;;1.23;1.17;;;5.20;99.90;;;;;;4989635;28;20652;-73
2021/12/02 05:51:42;;;;;;;1.63;1.52;;;5.30;99.90;;;;;;4991354;28;20186;-72
2021/12/02 05:54:08;;;;;;;1.80;1.70;;;5.30;99.90;;;;;;4992113;28;20185;-73
2021/12/02 05:56:33;;;;;;;1.38;1.27;;;5.20;99.90;;;;;;4992258;28;20221;-72
2021/12/02 05:58:59;;;;;;;2.00;1.50;;;5.20;99.90;;;;;;4991682;28;20186;-72
2021/12/02 06:01:25;;;;;;;3.80;1.40;;;5.20;99.90;;;;;;4992066;28;20193;-73
2021/12/02 06:03:51;;;;;;;1.58;1.20;;;5.10;99.90;;;;;;4993899;28;20208;-73
2021/12/02 06:06:17;;;;;;;1.65;1.35;;;5.20;99.90;;;;;;4990840;28;20312;-73
2021/12/02 06:08:43;;;;;;;2.45;1.67;;;5.20;99.90;;;;;;4991938;28;20590;-73
2021/12/02 06:11:09;;;;;;;2.78;1.50;;;5.20;99.90;;;;;;4991667;28;20174;-73
2021/12/02 06:13:35;;;;;;;1.50;1.40;;;5.30;99.90;;;;;;4993789;28;20608;-73
2021/12/02 06:16:00;;;;;;;1.35;1.35;;;5.30;99.90;;;;;;4990707;28;20333;-73
2021/12/02 06:18:26;;;;;;;2.10;1.65;;;5.30;99.90;;;;;;4992255;28;20201;-73
2021/12/02 06:20:54;;;;;;;3.22;1.75;;;5.30;99.90;;;;;;4992554;28;20248;-73
2021/12/02 06:23:21;;;;;;;3.40;1.80;;;5.30;99.90;;;;;;4992009;28;20257;-72
2021/12/02 06:25:47;;;;;;;1.55;1.45;;;5.30;99.90;;;;;;4991824;28;20186;-73
2021/12/02 06:28:14;;;;;;;2.28;1.63;;;5.40;99.90;;;;;;4992868;28;20174;-73
2021/12/02 06:30:40;;;;;;;1.38;1.13;;;5.40;99.90;;;;;;4993694;28;20177;-73
2021/12/02 06:33:06;;;;;;;1.20;1.20;;;5.30;99.90;;;;;;4990286;28;20174;-73
2021/12/02 06:35:32;;;;;;;2.28;1.20;;;5.30;99.90;;;;;;4989271;28;20601;-73
2021/12/02 06:37:58;;;;;;;1.08;1.02;;;5.30;99.90;;;;;;4992534;28;20202;-73
2021/12/02 06:40:24;;;;;;;2.80;2.20;;;5.30;99.90;;;;;;4992153;28;20178;-73
2021/12/02 06:42:50;;;;;;;6.68;2.08;;;5.40;99.90;;;;;;4988105;28;20601;-73
2021/12/02 06:45:16;;;;;;;1.67;1.58;;;5.40;99.90;;;;;;4973738;28;20272;-73
2021/12/02 06:47:42;;;;;;;1.10;1.10;;;5.40;99.90;;;;;;4991571;28;20237;-73
2021/12/02 06:50:16;;;;;;;1.75;1.65;;;5.30;99.90;;;;;;4987695;28;20178;-73
2021/12/02 06:52:42;;;;;;;2.05;1.95;;;5.30;99.90;;;;;;4990336;28;20177;-73
2021/12/02 06:55:09;;;;;;;1.90;1.75;;;5.30;99.90;;;;;;4991263;28;20209;-73
2021/12/02 06:57:34;;;;;;;1.40;1.40;;;5.30;99.90;;;;;;4974301;28;20210;-73
2021/12/02 07:00:07;;;;;;;2.35;2.15;;;5.30;99.90;;;;;;4991313;28;20240;-72
2021/12/02 07:02:32;;;;;;;2.30;1.83;;;5.30;99.90;;;;;;4993608;28;20201;-72
2021/12/02 07:04:58;;;;;;;2.47;1.90;;;5.30;99.90;;;;;;4984746;28;20729;-73
2021/12/02 07:07:26;;;;;;;1.75;1.70;;;5.30;99.90;;;;;;4966873;28;20198;-72
2021/12/02 07:09:51;;;;;;;1.95;1.80;;;5.30;99.90;;;;;;4983700;28;20170;-73
2021/12/02 07:12:19;;;;;;;2.33;1.60;;;5.30;99.90;;;;;;4980486;28;20178;-72
2021/12/02 07:14:46;;;;;;;1.27;1.27;;;5.30;99.90;;;;;;4977394;28;20544;-73
2021/12/02 07:17:12;;;;;;;2.22;1.73;;;5.20;99.90;;;;;;4979526;28;20654;-73
2021/12/02 07:19:39;;;;;;;1.57;1.57;;;5.20;99.90;;;;;;4982689;28;20216;-72
2021/12/02 07:22:05;;;;;;;1.73;1.63;;;5.20;99.90;;;;;;4982848;28;20325;-72
2021/12/02 07:24:31;;;;;;;1.48;1.38;;;5.30;99.90;;;;;;4981233;28;20300;-73
2021/12/02 07:26:57;;;;;;;1.10;1.10;;;5.30;99.90;;;;;;4985117;28;20241;-72
2021/12/02 07:29:23;;;;;;;1.80;1.50;;;5.20;99.90;;;;;;4984555;28;20186;-73
2021/12/02 07:31:51;;;;;;;1.70;1.60;;;5.20;99.90;;;;;;4983996;28;20189;-76
2021/12/02 07:34:17;;;;;;;1.90;1.80;;;5.20;99.90;;;;;;4982517;28;20182;-70
2021/12/02 07:36:44;;;;;;;1.20;1.20;;;5.20;99.90;;;;;;4983645;28;20210;-71
2021/12/02 07:39:10;;;;;;;1.77;1.70;;;5.30;99.90;;;;;;4981356;28;20186;-70
2021/12/02 07:41:39;;;;;;;1.98;0.73;;;5.40;99.90;;;;;;4981325;28;20682;-70
2021/12/02 07:44:06;;;;;;;1.70;1.60;;;5.50;99.90;;;;;;4980693;28;20598;-75
2021/12/02 07:46:32;;;;;;;1.35;1.25;;;5.70;99.90;;;;;;4978496;28;20221;-72
2021/12/02 07:48:58;;;;;;;2.63;1.50;;;5.70;99.90;;;;;;4982566;28;20602;-73
2021/12/02 07:51:30;;;;;;;2.10;1.90;;;5.70;99.90;;;;;;4981473;28;20183;-72
2021/12/02 07:54:01;;;;;;;1.38;1.27;;;5.80;99.90;;;;;;4982636;28;20179;-72
2021/12/02 07:56:30;;;;;;;2.67;1.57;;;5.80;99.90;;;;;;4980533;28;20292;-72
2021/12/02 07:58:55;;;;;;;1.85;1.10;;;5.90;99.90;;;;;;4978256;28;20261;-73
2021/12/02 08:01:21;;;;;;;1.40;1.40;;;6.00;99.90;;;;;;4982328;28;20233;-73
2021/12/02 08:03:47;;;;;;;1.98;1.50;;;6.00;99.90;;;;;;4976377;28;20210;-73
2021/12/02 08:06:15;;;;;;;1.17;1.08;;;6.00;99.90;;;;;;4982855;28;20562;-73
2021/12/02 08:08:42;;;;;;;1.98;1.30;;;6.10;99.90;;;;;;4979729;28;20178;-73
2021/12/02 08:11:08;;;;;;;1.45;1.35;;;6.00;99.90;;;;;;4982381;28;20659;-73
2021/12/02 08:13:34;;;;;;;1.38;1.38;;;6.10;99.90;;;;;;4980617;28;20617;-73
2021/12/02 08:16:02;;;;;;;2.03;1.40;;;6.10;99.90;;;;;;4992969;28;20202;-72
2021/12/02 08:18:28;;;;;;;1.70;1.60;;;6.00;99.90;;;;;;4991808;28;20196;-73
2021/12/02 08:20:54;;;;;;;3.63;1.80;;;5.90;99.90;;;;;;4984189;28;20681;-73
2021/12/02 08:23:20;;;;;;;1.35;1.25;;;5.90;99.90;;;;;;4976030;28;20189;-72
2021/12/02 08:25:46;;;;;;;1.90;1.33;;;5.80;99.90;;;;;;4985439;28;20260;-72
2021/12/02 08:28:12;;;;;;;0.65;0.65;;;5.80;99.90;;;;;;4988309;28;20618;-72
2021/12/02 08:30:38;;;;;;;1.55;1.35;;;5.70;99.90;;;;;;4987004;28;20178;-74
2021/12/02 08:33:07;;;;;;;1.17;1.17;;;5.80;99.90;;;;;;4989377;28;20174;-74
2021/12/02 08:35:34;;;;;;;1.15;1.02;;;5.70;99.90;;;;;;4991445;28;20216;-74
2021/12/02 08:38:04;;;;;;;1.70;1.33;;;5.80;99.90;;;;;;4985729;28;20186;-74
2021/12/02 08:40:34;;;;;;;0.93;0.93;;;5.80;99.90;;;;;;4987625;28;20681;-74
2021/12/02 08:43:02;;;;;;;1.05;1.05;;;5.90;99.90;;;;;;4990963;28;20190;-74
2021/12/02 08:45:29;;;;;;;1.52;1.42;;;5.90;99.90;;;;;;4989819;28;20206;-73
2021/12/02 08:47:56;;;;;;;2.80;1.67;;;6.00;99.90;;;;;;4983365;28;20205;-74
2021/12/02 08:50:22;;;;;;;3.83;1.27;;;6.10;99.90;;;;;;4972112;28;20188;-75
2021/12/02 08:52:50;;;;;;;1.10;1.10;;;6.20;99.90;;;;;;4988020;28;20185;-73
2021/12/02 08:55:17;;;;;;;0.90;0.90;;;6.20;99.90;;;;;;4988135;28;20236;-74
2021/12/02 08:57:43;;;;;;;1.52;1.42;;;6.20;99.90;;;;;;4988034;28;20206;-74
2021/12/02 09:00:12;;;;;;;1.05;0.95;;;6.20;99.90;;;;;;4987681;28;20193;-72
2021/12/02 09:02:38;;;;;;;1.55;1.45;;;6.30;99.90;;;;;;4992976;28;20550;-74
2021/12/02 09:05:05;;;;;;;1.75;1.33;;;6.70;99.90;;;;;;4994688;28;20202;-74
2021/12/02 09:07:32;;;;;;;1.58;1.48;;;7.20;99.90;;;;;;4994388;28;20205;-74
2021/12/02 09:09:57;;;;;;;1.20;1.10;;;7.30;99.90;;;;;;4991915;28;20540;-71
2021/12/02 09:12:24;;;;;;;0.98;0.98;;;7.20;99.90;;;;;;4985515;28;20182;-70
2021/12/02 09:14:50;;;;;;;5.10;1.40;;;7.00;99.90;;;;;;4983569;28;20187;-73
2021/12/02 09:17:16;;;;;;;0.82;0.82;;;7.10;99.90;;;;;;4988675;28;20561;-71
2021/12/02 09:19:42;;;;;;;1.58;1.48;;;7.10;99.90;;;;;;4987355;28;20208;-70
2021/12/02 09:22:07;;;;;;;1.48;1.13;;;7.10;99.90;;;;;;4966959;28;20185;-74
2021/12/02 09:24:33;;;;;;;1.42;1.33;;;7.10;99.90;;;;;;4983352;28;20622;-72
2021/12/02 09:26:59;;;;;;;1.10;1.10;;;7.10;99.90;;;;;;4985603;28;20232;-73
2021/12/02 09:29:25;;;;;;;1.00;1.00;;;6.90;99.90;;;;;;4986505;28;20190;-71
2021/12/02 09:31:52;;;;;;;1.23;1.13;;;6.80;99.90;;;;;;4987486;28;20233;-72
2021/12/02 09:34:19;;;;;;;1.77;1.67;;;6.70;99.90;;;;;;4988659;28;20186;-72
2021/12/02 09:36:46;;;;;;;1.40;1.00;;;6.80;99.90;;;;;;4985862;28;20202;-73
2021/12/02 09:39:13;;;;;;;1.05;1.05;;;7.00;99.90;;;;;;4987719;28;20198;-73
2021/12/02 09:41:40;;;;;;;1.30;0.95;;;7.30;99.90;;;;;;4984625;28;20205;-73
2021/12/02 09:44:07;;;;;;;0.82;0.82;;;7.60;99.90;;;;;;4990153;28;20256;-73
2021/12/02 09:46:34;;;;;;;1.35;1.25;;;7.70;99.90;;;;;;4985422;28;20198;-75
2021/12/02 09:49:03;;;;;;;1.33;1.13;;;7.70;99.90;;;;;;4989564;28;20665;-73
2021/12/02 09:52:19;;;;;;;0.60;0.60;;;7.70;99.90;;;;;;4992438;28;20232;-73
2021/12/02 09:54:19;;;;;;;1.08;0.85;;;7.70;99.90;;;;;;4979902;28;20209;-73
2021/12/02 09:56:48;;;;;;;0.98;0.95;;;7.60;99.90;;;;;;4989199;28;20293;-71
2021/12/02 10:02:02;;;;;;;2.40;1.30;;;7.50;99.90;;;;;;4990935;28;20196;-79
2021/12/02 10:04:29;;;;;;;1.15;1.15;;;7.40;99.90;;;;;;4984610;28;20201;-72
2021/12/02 10:07:10;;;;;;;1.50;1.50;;;7.30;99.90;;;;;;4986228;28;20293;-72
2021/12/02 10:09:40;;;;;;;0.90;0.90;;;8.40;99.90;;;;;;4986685;28;20228;-72
2021/12/02 10:12:13;;;;;;;0.90;0.70;;;10.30;99.90;;;;;;4987058;28;20768;-72
2021/12/02 10:14:42;;;;;;;1.25;1.15;;;12.10;99.90;;;;;;4985467;28;20210;-73
2021/12/02 10:22:42;;;;;;;0.52;0.52;;;12.20;99.90;;;;;;4988566;28;20200;-74
2021/12/02 10:25:08;;;;;;;1.77;1.20;;;11.20;99.90;;;;;;4981519;28;20205;-74
2021/12/02 10:27:34;;;;;;;1.30;1.20;;;10.50;99.90;;;;;;4986577;28;20229;-73
2021/12/02 10:29:59;;;;;;;1.80;1.70;;;9.70;99.90;;;;;;4984793;28;20604;-71
2021/12/02 10:32:30;;;;;;;2.40;1.40;;;9.00;99.90;;;;;;4982916;28;20179;-72
2021/12/02 10:35:03;;;;;;;1.60;1.50;;;8.90;99.90;;;;;;4985276;28;20187;-74
2021/12/02 10:37:34;;;;;;;1.08;1.08;;;8.60;99.90;;;;;;4992730;28;20214;-74
2021/12/02 10:40:08;;;;;;;1.48;1.40;;;8.20;99.90;;;;;;4993514;28;20220;-73
2021/12/02 10:42:37;;;;;;;2.35;1.67;;;7.80;99.90;;;;;;4994150;28;20186;-73
2021/12/02 10:45:06;;;;;;;2.35;2.15;;;7.20;99.90;;;;;;4991388;28;20213;-73
2021/12/02 10:47:33;;;;;;;2.40;2.20;;;6.70;99.90;;;;;;4981563;28;20214;-73
2021/12/02 10:50:07;;;;;;;1.70;1.65;;;6.40;99.90;;;;;;4985928;28;20230;-73
2021/12/02 10:52:34;;;;;;;1.95;1.85;;;6.10;99.90;;;;;;4986302;28;22337;-72
2021/12/02 10:55:13;;;;;;;3.25;2.05;;;6.20;99.90;;;;;;4972160;28;20186;-72
2021/12/02 10:57:51;;;;;;;2.00;1.90;;;6.90;99.90;;;;;;4984945;28;20204;-73
2021/12/02 11:00:20;;;;;;;1.50;1.50;;;8.10;99.90;;;;;;4981716;28;20567;-75
2021/12/02 11:02:49;;;;;;;3.28;1.77;;;9.30;99.90;;;;;;4989931;28;20181;-74
2021/12/02 11:05:21;;;;;;;2.15;1.80;;;10.50;99.90;;;;;;4994690;28;20201;-73
2021/12/02 11:07:57;;;;;;;1.40;1.30;;;12.50;99.90;;;;;;4987282;28;20225;-74
2021/12/02 11:10:24;;;;;;;1.02;1.00;;;14.90;99.90;;;;;;4989676;28;20255;-76
2021/12/02 11:12:53;;;;;;;1.20;1.20;;;16.00;99.90;;;;;;4988390;28;20182;-74
2021/12/02 11:15:20;;;;;;;1.42;1.17;;;16.40;99.90;;;;;;4981486;28;20202;-76
2021/12/02 11:17:48;;;;;;;1.58;1.48;;;15.80;99.90;;;;;;4986839;28;20198;-72
2021/12/02 11:20:28;;;;;;;1.55;1.45;;;14.50;99.90;;;;;;4981214;28;20204;-73
2021/12/02 11:23:04;;;;;;;1.40;1.30;;;12.80;99.90;;;;;;4982296;28;20183;-74
2021/12/02 11:25:33;;;;;;;1.60;1.55;;;11.60;99.90;;;;;;4987357;28;20213;-72
2021/12/02 11:28:08;;;;;;;1.63;1.52;;;10.70;99.90;;;;;;4985904;28;20198;-75
2021/12/02 11:30:36;;;;;;;1.55;1.45;;;10.30;99.90;;;;;;4986462;28;20196;-77
2021/12/02 11:33:05;;;;;;;0.77;0.70;;;10.00;99.90;;;;;;4965270;28;20195;-77
2021/12/02 11:35:33;;;;;;;1.13;1.13;;;9.60;99.90;;;;;;4985791;28;20191;-74
2021/12/02 11:38:04;;;;;;;1.75;1.38;;;9.00;99.90;;;;;;4982460;28;20202;-71
2021/12/02 11:40:38;;;;;;;1.23;1.23;;;8.70;99.90;;;;;;4983493;28;20746;-74
2021/12/02 11:43:04;;;;;;;1.15;1.15;;;8.60;99.90;;;;;;4985727;28;20189;-70
2021/12/02 11:45:33;;;;;;;1.13;1.13;;;9.00;99.90;;;;;;4990874;28;20305;-75
2021/12/02 11:47:59;;;;;;;4.68;1.02;;;10.20;99.90;;;;;;4991949;28;20194;-77
2021/12/02 11:50:28;;;;;;;0.52;0.52;;;11.90;99.90;;;;;;4967877;28;20182;-77
2021/12/02 11:52:54;;;;;;;1.40;0.80;;;13.60;99.90;;;;;;4991009;28;20269;-75
2021/12/02 11:55:24;;;;;;;1.27;1.05;;;15.20;99.90;;;;;;4990313;28;20182;-75
2021/12/02 11:57:51;;;;;;;0.90;0.90;;;16.60;98.60;;;;;;4994662;28;20626;-75
2021/12/02 12:00:21;;;;;;;0.73;0.63;;;18.50;91.20;;;;;;4988385;28;20217;-75
2021/12/02 12:02:51;;;;;;;1.25;0.80;;;19.30;78.80;;;;;;4986842;28;20193;-75
2021/12/02 12:05:23;;;;;;;0.68;0.68;;;18.20;76.90;;;;;;4988856;28;20220;-74
2021/12/02 12:07:49;;;;;;;1.67;0.90;;;15.70;80.80;;;;;;4988658;28;20565;-74
2021/12/02 12:10:21;;;;;;;0.85;0.85;;;14.20;90.60;;;;;;4989782;28;20178;-74
2021/12/02 12:12:49;;;;;;;1.00;1.00;;;13.70;92.50;;;;;;4986769;28;20204;-74
2021/12/02 12:15:36;;;;;;;2.78;1.08;;;13.60;92.50;;;;;;4990724;28;20193;-74
2021/12/02 12:18:05;;;;;;;1.27;1.13;;;12.70;94.50;;;;;;4988051;28;20182;-74
2021/12/02 12:21:00;;;;;;;1.15;0.70;;;11.90;94.90;;;;;;4984752;28;20348;-75
2021/12/02 12:23:45;;;;;;;1.50;1.40;;;11.40;99.90;;;;;;4988644;28;20192;-74
2021/12/02 12:26:25;;;;;;;1.55;1.35;;;11.00;99.90;;;;;;4986534;28;20198;-74
2021/12/02 12:29:06;;;;;;;1.70;1.23;;;10.70;99.90;;;;;;4989164;28;20225;-77
2021/12/02 12:32:10;;;;;;;3.50;1.80;;;10.20;99.90;;;;;;4986190;28;20186;-76
2021/12/02 12:37:46;;;;;;;1.85;1.33;;;9.60;99.90;;;;;;4990901;28;20553;-81
2021/12/02 12:40:22;;;;;;;1.33;1.23;;;9.20;99.90;;;;;;4992825;28;20619;-76
2021/12/02 12:42:57;;;;;;;0.80;0.38;;;8.60;99.90;;;;;;4991553;28;20239;-73
2021/12/02 12:45:38;;;;;;;1.42;0.60;;;7.20;99.90;;;;;;4985668;28;21015;-72
2021/12/02 12:48:07;;;;;;;0.55;0.55;;;6.10;99.90;;;;;;4990462;28;20259;-74
2021/12/02 12:50:43;;;;;;;1.75;0.85;;;5.40;99.90;;;;;;4983502;28;20270;-73
2021/12/02 12:53:15;;;;;;;0.40;0.40;;;4.90;99.90;;;;;;4982505;28;20252;-75
2021/12/02 12:55:55;;;;;;;0.68;0.68;;;4.70;99.90;;;;;;4982881;28;20269;-72
2021/12/02 12:58:26;;;;;;;0.80;0.80;;;4.50;99.90;;;;;;4984807;28;20226;-74
2021/12/02 13:00:58;;;;;;;1.13;0.90;;;4.40;99.90;;;;;;4980045;28;20565;-73
2021/12/02 13:03:29;;;;;;;0.87;0.73;;;4.30;99.90;;;;;;4983980;28;20581;-72
2021/12/02 13:06:12;;;;;;;0.60;0.60;;;4.20;99.90;;;;;;4980640;28;20209;-73
2021/12/02 13:08:57;;;;;;;0.60;0.60;;;4.20;99.90;;;;;;4985169;28;20177;-72
2021/12/02 13:11:32;;;;;;;1.20;1.10;;;4.00;99.90;;;;;;4979343;28;20624;-73
2021/12/02 13:14:02;;;;;;;0.70;0.70;;;4.00;99.90;;;;;;4982050;28;20596;-73
2021/12/02 13:16:33;;;;;;;0.87;0.87;;;4.10;99.90;;;;;;4985332;28;20583;-73
2021/12/02 13:19:10;;;;;;;0.67;0.67;;;4.00;99.90;;;;;;4981715;28;20189;-72
2021/12/02 13:21:36;;;;;;;0.73;0.73;;;4.00;99.90;;;;;;4987625;28;20563;-73
2021/12/02 13:24:10;;;;;;;0.77;0.60;;;3.90;99.90;;;;;;4985757;28;20206;-73
2021/12/02 13:26:41;;;;;;;1.10;1.00;;;3.90;99.90;;;;;;4979876;28;20210;-74
2021/12/02 13:29:16;;;;;;;0.70;0.70;;;3.90;99.90;;;;;;4983172;28;20577;-74
2021/12/02 13:31:57;;;;;;;1.00;1.00;;;3.90;99.90;;;;;;4987756;28;20177;-74
2021/12/02 13:34:25;;;;;;;0.73;0.70;;;4.00;99.90;;;;;;4984469;28;20748;-71
2021/12/02 13:36:58;;;;;;;0.70;0.70;;;4.00;99.90;;;;;;4988236;28;20202;-72